sensor_id;sensor_type;location;lat;lon;timestamp;pressure;altitude;pressure_sealevel;temperature;humidity
60705;BME280;46545;38.014;-7.874;2024-02-26T00:00:11;98503.94;;;13.39;100.00
60705;BME280;46545;38.014;-7.874;2024-02-26T00:02:12;98501.25;;;13.39;100.00
60705;BME280;46545;38.014;-7.874;2024-02-26T00:04:13;98501.50;;;13.37;100.00
60705;BME280;46545;38.014;-7.874;2024-02-26T00:06:13;98505.03;;;13.38;100.00
60705;BME280;46545;38.014;-7.874;2024-02-26T00:08:14;98494.50;;;13.41;100.00
60705;BME280;46545;38.014;-7.874;2024-02-26T00:10:15;98505.00;;;13.43;100.00
60705;BME280;46545;38.014;-7.874;2024-02-26T00:12:16;98498.03;;;13.42;100.00
60705;BME280;46545;38.014;-7.874;2024-02-26T00:14:16;98499.34;;;13.44;100.00
60705;BME280;46545;38.014;-7.874;2024-02-26T00:16:17;98493.72;;;13.41;100.00
60705;BME280;46545;38.014;-7.874;2024-02-26T00:18:18;98487.25;;;13.37;100.00
60705;BME280;46545;38.014;-7.874;2024-02-26T00:20:18;98485.09;;;13.44;100.00
60705;BME280;46545;38.014;-7.874;2024-02-26T00:22:19;98494.78;;;13.45;100.00
60705;BME280;46545;38.014;-7.874;2024-02-26T00:24:20;98480.25;;;13.46;100.00
60705;BME280;46545;38.014;-7.874;2024-02-26T00:26:20;98472.69;;;13.48;100.00
60705;BME280;46545;38.014;-7.874;2024-02-26T00:28:21;98486.69;;;13.50;100.00
60705;BME280;46545;38.014;-7.874;2024-02-26T00:30:22;98486.97;;;13.48;100.00
60705;BME280;46545;38.014;-7.874;2024-02-26T00:32:23;98482.66;;;13.47;100.00
60705;BME280;46545;38.014;-7.874;2024-02-26T00:34:24;98479.41;;;13.50;100.00
60705;BME280;46545;38.014;-7.874;2024-02-26T00:36:24;98481.84;;;13.47;100.00
60705;BME280;46545;38.014;-7.874;2024-02-26T00:38:25;98478.88;;;13.48;100.00
60705;BME280;46545;38.014;-7.874;2024-02-26T00:40:26;98467.31;;;13.48;100.00
60705;BME280;46545;38.014;-7.874;2024-02-26T00:42:27;98465.69;;;13.47;100.00
60705;BME280;46545;38.014;-7.874;2024-02-26T00:44:28;98466.50;;;13.47;100.00
60705;BME280;46545;38.014;-7.874;2024-02-26T00:46:28;98457.63;;;13.47;100.00
60705;BME280;46545;38.014;-7.874;2024-02-26T00:48:29;98457.63;;;13.47;100.00
60705;BME280;46545;38.014;-7.874;2024-02-26T00:50:30;98463.81;;;13.47;100.00
60705;BME280;46545;38.014;-7.874;2024-02-26T00:52:31;98462.22;;;13.46;100.00
60705;BME280;46545;38.014;-7.874;2024-02-26T00:54:32;98456.28;;;13.44;100.00
60705;BME280;46545;38.014;-7.874;2024-02-26T00:56:33;98451.16;;;13.43;100.00
60705;BME280;46545;38.014;-7.874;2024-02-26T00:58:33;98444.72;;;13.44;100.00
60705;BME280;46545;38.014;-7.874;2024-02-26T01:00:34;98450.38;;;13.42;100.00
60705;BME280;46545;38.014;-7.874;2024-02-26T01:02:35;98435.59;;;13.40;100.00
60705;BME280;46545;38.014;-7.874;2024-02-26T01:04:35;98440.97;;;13.40;100.00
60705;BME280;46545;38.014;-7.874;2024-02-26T01:06:36;98435.59;;;13.40;100.00
60705;BME280;46545;38.014;-7.874;2024-02-26T01:08:37;98431.81;;;13.41;100.00
60705;BME280;46545;38.014;-7.874;2024-02-26T01:10:38;98426.16;;;13.42;100.00
60705;BME280;46545;38.014;-7.874;2024-02-26T01:12:38;98430.75;;;13.42;100.00
60705;BME280;46545;38.014;-7.874;2024-02-26T01:14:39;98425.06;;;13.43;100.00
60705;BME280;46545;38.014;-7.874;2024-02-26T01:16:40;98421.31;;;13.44;100.00
60705;BME280;46545;38.014;-7.874;2024-02-26T01:18:40;98426.69;;;13.44;100.00
60705;BME280;46545;38.014;-7.874;2024-02-26T01:20:41;98428.56;;;13.44;100.00
60705;BME280;46545;38.014;-7.874;2024-02-26T01:22:42;98438.50;;;13.48;100.00
60705;BME280;46545;38.014;-7.874;2024-02-26T01:24:43;98502.56;;;13.51;100.00
60705;BME280;46545;38.014;-7.874;2024-02-26T01:26:44;98503.69;;;13.09;100.00
60705;BME280;46545;38.014;-7.874;2024-02-26T01:28:44;98510.94;;;12.63;100.00
60705;BME280;46545;38.014;-7.874;2024-02-26T01:30:45;98495.88;;;12.26;100.00
60705;BME280;46545;38.014;-7.874;2024-02-26T01:32:46;98493.91;;;11.96;100.00
60705;BME280;46545;38.014;-7.874;2024-02-26T01:34:46;98502.59;;;11.60;100.00
60705;BME280;46545;38.014;-7.874;2024-02-26T01:36:47;98499.50;;;11.31;100.00
60705;BME280;46545;38.014;-7.874;2024-02-26T01:38:48;98491.63;;;11.14;100.00
60705;BME280;46545;38.014;-7.874;2024-02-26T01:40:48;98501.38;;;10.93;100.00
60705;BME280;46545;38.014;-7.874;2024-02-26T01:42:52;98479.84;;;10.78;100.00
60705;BME280;46545;38.014;-7.874;2024-02-26T01:44:53;98486.16;;;10.66;100.00
60705;BME280;46545;38.014;-7.874;2024-02-26T01:46:54;98485.66;;;10.69;100.00
60705;BME280;46545;38.014;-7.874;2024-02-26T01:48:55;98484.03;;;10.68;100.00
60705;BME280;46545;38.014;-7.874;2024-02-26T01:50:56;98485.69;;;10.75;100.00
60705;BME280;46545;38.014;-7.874;2024-02-26T01:52:57;98481.97;;;10.76;100.00
60705;BME280;46545;38.014;-7.874;2024-02-26T01:54:58;98475.16;;;10.63;100.00
60705;BME280;46545;38.014;-7.874;2024-02-26T01:56:58;98481.56;;;10.57;100.00
60705;BME280;46545;38.014;-7.874;2024-02-26T01:58:59;98476.53;;;10.65;100.00
60705;BME280;46545;38.014;-7.874;2024-02-26T02:01:00;98466.59;;;10.61;100.00
60705;BME280;46545;38.014;-7.874;2024-02-26T02:03:02;98463.91;;;10.61;100.00
60705;BME280;46545;38.014;-7.874;2024-02-26T02:05:05;98462.50;;;10.53;100.00
60705;BME280;46545;38.014;-7.874;2024-02-26T02:07:06;98469.44;;;10.54;100.00
60705;BME280;46545;38.014;-7.874;2024-02-26T02:09:08;98458.47;;;10.50;100.00
60705;BME280;46545;38.014;-7.874;2024-02-26T02:11:09;98458.41;;;10.45;100.00
60705;BME280;46545;38.014;-7.874;2024-02-26T02:13:11;98450.91;;;10.47;100.00
60705;BME280;46545;38.014;-7.874;2024-02-26T02:15:12;98455.50;;;10.52;100.00
60705;BME280;46545;38.014;-7.874;2024-02-26T02:17:13;98458.19;;;10.52;100.00
60705;BME280;46545;38.014;-7.874;2024-02-26T02:19:14;98458.41;;;10.45;100.00
60705;BME280;46545;38.014;-7.874;2024-02-26T02:21:14;98460.84;;;10.52;100.00
60705;BME280;46545;38.014;-7.874;2024-02-26T02:23:15;98468.66;;;10.54;100.00
60705;BME280;46545;38.014;-7.874;2024-02-26T02:25:16;98468.06;;;10.46;100.00
60705;BME280;46545;38.014;-7.874;2024-02-26T02:27:16;98477.91;;;10.41;100.00
60705;BME280;46545;38.014;-7.874;2024-02-26T02:29:17;98478.47;;;10.43;100.00
60705;BME280;46545;38.014;-7.874;2024-02-26T02:31:18;98479.81;;;10.45;100.00
60705;BME280;46545;38.014;-7.874;2024-02-26T02:33:19;98460.13;;;10.57;100.00
60705;BME280;46545;38.014;-7.874;2024-02-26T02:35:20;98470.78;;;10.52;100.00
60705;BME280;46545;38.014;-7.874;2024-02-26T02:37:21;98464.59;;;10.46;100.00
60705;BME280;46545;38.014;-7.874;2024-02-26T02:39:21;98476.56;;;10.38;100.00
60705;BME280;46545;38.014;-7.874;2024-02-26T02:41:22;98478.91;;;10.29;100.00
60705;BME280;46545;38.014;-7.874;2024-02-26T02:43:23;98471.00;;;10.23;100.00
60705;BME280;46545;38.014;-7.874;2024-02-26T02:45:23;98484.47;;;10.28;100.00
60705;BME280;46545;38.014;-7.874;2024-02-26T02:47:24;98475.38;;;10.29;100.00
60705;BME280;46545;38.014;-7.874;2024-02-26T02:49:25;98459.06;;;10.30;100.00
60705;BME280;46545;38.014;-7.874;2024-02-26T02:51:25;98459.56;;;10.27;100.00
60705;BME280;46545;38.014;-7.874;2024-02-26T02:53:26;98459.00;;;10.25;100.00
60705;BME280;46545;38.014;-7.874;2024-02-26T02:55:27;98468.91;;;10.25;100.00
60705;BME280;46545;38.014;-7.874;2024-02-26T02:57:28;98473.41;;;10.19;100.00
60705;BME280;46545;38.014;-7.874;2024-02-26T02:59:29;98460.75;;;10.15;100.00
60705;BME280;46545;38.014;-7.874;2024-02-26T03:01:30;98463.44;;;10.15;100.00
60705;BME280;46545;38.014;-7.874;2024-02-26T03:03:31;98456.69;;;10.07;100.00
60705;BME280;46545;38.014;-7.874;2024-02-26T03:05:31;98459.06;;;10.03;100.00
60705;BME280;46545;38.014;-7.874;2024-02-26T03:07:32;98447.78;;;10.01;100.00
60705;BME280;46545;38.014;-7.874;2024-02-26T03:09:33;98429.53;;;9.98;100.00
60705;BME280;46545;38.014;-7.874;2024-02-26T03:11:33;98427.16;;;9.97;100.00
60705;BME280;46545;38.014;-7.874;2024-02-26T03:13:34;98424.72;;;9.95;100.00
60705;BME280;46545;38.014;-7.874;2024-02-26T03:15:35;98403.53;;;9.94;100.00
60705;BME280;46545;38.014;-7.874;2024-02-26T03:17:35;98416.91;;;9.94;100.00
60705;BME280;46545;38.014;-7.874;2024-02-26T03:19:36;98425.19;;;9.92;100.00
60705;BME280;46545;38.014;-7.874;2024-02-26T03:21:37;98431.88;;;9.89;100.00
60705;BME280;46545;38.014;-7.874;2024-02-26T03:23:37;98439.09;;;9.89;100.00
60705;BME280;46545;38.014;-7.874;2024-02-26T03:25:38;98426.19;;;9.86;100.00
60705;BME280;46545;38.014;-7.874;2024-02-26T03:27:39;98428.09;;;9.85;100.00
60705;BME280;46545;38.014;-7.874;2024-02-26T03:29:40;98423.50;;;9.81;100.00
60705;BME280;46545;38.014;-7.874;2024-02-26T03:31:40;98410.34;;;9.79;100.00
60705;BME280;46545;38.014;-7.874;2024-02-26T03:33:41;98395.13;;;9.80;100.00
60705;BME280;46545;38.014;-7.874;2024-02-26T03:35:42;98399.16;;;9.82;100.00
60705;BME280;46545;38.014;-7.874;2024-02-26T03:37:42;98409.06;;;9.82;100.00
60705;BME280;46545;38.014;-7.874;2024-02-26T03:39:43;98426.69;;;9.78;100.00
60705;BME280;46545;38.014;-7.874;2024-02-26T03:41:44;98428.81;;;9.76;100.00
60705;BME280;46545;38.014;-7.874;2024-02-26T03:43:44;98430.41;;;9.77;100.00
60705;BME280;46545;38.014;-7.874;2024-02-26T03:45:45;98424.19;;;9.71;100.00
60705;BME280;46545;38.014;-7.874;2024-02-26T03:47:46;98418.28;;;9.69;100.00
60705;BME280;46545;38.014;-7.874;2024-02-26T03:49:47;98409.44;;;9.68;100.00
60705;BME280;46545;38.014;-7.874;2024-02-26T03:51:48;98404.59;;;9.65;100.00
60705;BME280;46545;38.014;-7.874;2024-02-26T03:53:48;98401.63;;;9.62;100.00
60705;BME280;46545;38.014;-7.874;2024-02-26T03:55:49;98408.88;;;9.66;100.00
60705;BME280;46545;38.014;-7.874;2024-02-26T03:57:52;98409.19;;;9.70;100.00
60705;BME280;46545;38.014;-7.874;2024-02-26T03:59:53;98412.69;;;9.70;100.00
60705;BME280;46545;38.014;-7.874;2024-02-26T04:01:54;98401.41;;;9.68;100.00
60705;BME280;46545;38.014;-7.874;2024-02-26T04:03:55;98404.97;;;9.74;100.00
60705;BME280;46545;38.014;-7.874;2024-02-26T04:05:55;98398.06;;;9.78;100.00
60705;BME280;46545;38.014;-7.874;2024-02-26T04:07:56;98397.25;;;9.78;100.00
60705;BME280;46545;38.014;-7.874;2024-02-26T04:09:57;98403.88;;;9.75;100.00
60705;BME280;46545;38.014;-7.874;2024-02-26T04:11:57;98426.94;;;9.76;100.00
60705;BME280;46545;38.014;-7.874;2024-02-26T04:13:58;98430.72;;;9.80;100.00
60705;BME280;46545;38.014;-7.874;2024-02-26T04:15:59;98428.84;;;9.81;100.00
60705;BME280;46545;38.014;-7.874;2024-02-26T04:18:01;98436.56;;;9.77;100.00
60705;BME280;46545;38.014;-7.874;2024-02-26T04:20:04;98435.75;;;9.77;100.00
60705;BME280;46545;38.014;-7.874;2024-02-26T04:22:05;98440.31;;;9.76;100.00
60705;BME280;46545;38.014;-7.874;2024-02-26T04:24:06;98449.94;;;9.77;100.00
60705;BME280;46545;38.014;-7.874;2024-02-26T04:26:07;98451.06;;;9.81;100.00
60705;BME280;46545;38.014;-7.874;2024-02-26T04:28:07;98431.19;;;9.77;100.00
60705;BME280;46545;38.014;-7.874;2024-02-26T04:30:08;98414.91;;;9.79;100.00
60705;BME280;46545;38.014;-7.874;2024-02-26T04:32:09;98403.97;;;9.80;100.00
60705;BME280;46545;38.014;-7.874;2024-02-26T04:34:10;98410.44;;;9.84;100.00
60705;BME280;46545;38.014;-7.874;2024-02-26T04:36:14;98430.75;;;9.85;100.00
60705;BME280;46545;38.014;-7.874;2024-02-26T04:38:16;98447.09;;;9.84;100.00
60705;BME280;46545;38.014;-7.874;2024-02-26T04:40:16;98438.22;;;9.83;100.00
60705;BME280;46545;38.014;-7.874;2024-02-26T04:42:17;98440.91;;;9.83;100.00
60705;BME280;46545;38.014;-7.874;2024-02-26T04:44:18;98439.84;;;9.84;100.00
60705;BME280;46545;38.014;-7.874;2024-02-26T04:46:18;98435.88;;;9.87;100.00
60705;BME280;46545;38.014;-7.874;2024-02-26T04:48:19;98437.47;;;9.88;100.00
60705;BME280;46545;38.014;-7.874;2024-02-26T04:50:20;98438.03;;;9.90;100.00
60705;BME280;46545;38.014;-7.874;2024-02-26T04:52:21;98432.22;;;9.98;100.00
60705;BME280;46545;38.014;-7.874;2024-02-26T04:54:22;98423.69;;;10.01;100.00
60705;BME280;46545;38.014;-7.874;2024-02-26T04:56:22;98437.56;;;9.98;100.00
60705;BME280;46545;38.014;-7.874;2024-02-26T04:58:23;98439.22;;;9.99;100.00
60705;BME280;46545;38.014;-7.874;2024-02-26T05:00:24;98447.78;;;10.01;100.00
60705;BME280;46545;38.014;-7.874;2024-02-26T05:02:24;98434.91;;;9.98;100.00
60705;BME280;46545;38.014;-7.874;2024-02-26T05:04:25;98446.72;;;10.02;100.00
60705;BME280;46545;38.014;-7.874;2024-02-26T05:06:26;98438.44;;;10.04;100.00
60705;BME280;46545;38.014;-7.874;2024-02-26T05:08:26;98434.72;;;10.05;100.00
60705;BME280;46545;38.014;-7.874;2024-02-26T05:10:27;98446.53;;;10.09;100.00
60705;BME280;46545;38.014;-7.874;2024-02-26T05:12:28;98443.09;;;10.14;100.00
60705;BME280;46545;38.014;-7.874;2024-02-26T05:14:29;98442.03;;;10.15;100.00
60705;BME280;46545;38.014;-7.874;2024-02-26T05:16:29;98443.41;;;10.17;100.00
60705;BME280;46545;38.014;-7.874;2024-02-26T05:18:31;98440.22;;;10.20;100.00
60705;BME280;46545;38.014;-7.874;2024-02-26T05:20:32;98436.75;;;10.25;100.00
60705;BME280;46545;38.014;-7.874;2024-02-26T05:22:35;98438.88;;;10.23;100.00
60705;BME280;46545;38.014;-7.874;2024-02-26T05:24:37;98440.22;;;10.20;100.00
60705;BME280;46545;38.014;-7.874;2024-02-26T05:26:38;98443.13;;;10.19;100.00
60705;BME280;46545;38.014;-7.874;2024-02-26T05:28:39;98437.78;;;10.19;100.00
60705;BME280;46545;38.014;-7.874;2024-02-26T05:30:39;98433.25;;;10.19;100.00
60705;BME280;46545;38.014;-7.874;2024-02-26T05:32:40;98423.28;;;10.15;100.00
60705;BME280;46545;38.014;-7.874;2024-02-26T05:34:41;98428.34;;;10.11;100.00
60705;BME280;46545;38.014;-7.874;2024-02-26T05:36:41;98424.03;;;10.10;100.00
60705;BME280;46545;38.014;-7.874;2024-02-26T05:38:42;98429.91;;;10.07;100.00
60705;BME280;46545;38.014;-7.874;2024-02-26T05:40:43;98430.16;;;10.05;100.00
60705;BME280;46545;38.014;-7.874;2024-02-26T05:42:43;98423.69;;;10.01;100.00
60705;BME280;46545;38.014;-7.874;2024-02-26T05:44:47;98427.69;;;9.99;100.00
60705;BME280;46545;38.014;-7.874;2024-02-26T05:46:47;98433.78;;;9.94;100.00
60705;BME280;46545;38.014;-7.874;2024-02-26T05:48:50;98436.47;;;9.94;100.00
60705;BME280;46545;38.014;-7.874;2024-02-26T05:50:51;98436.19;;;9.90;100.00
60705;BME280;46545;38.014;-7.874;2024-02-26T05:52:51;98436.97;;;9.91;100.00
60705;BME280;46545;38.014;-7.874;2024-02-26T05:54:53;98437.28;;;9.95;100.00
60705;BME280;46545;38.014;-7.874;2024-02-26T05:56:53;98441.88;;;9.99;100.00
60705;BME280;46545;38.014;-7.874;2024-02-26T05:58:54;98453.63;;;9.98;100.00
60705;BME280;46545;38.014;-7.874;2024-02-26T06:00:56;98461.94;;;9.97;100.00
60705;BME280;46545;38.014;-7.874;2024-02-26T06:02:57;98456.31;;;9.98;100.00
60705;BME280;46545;38.014;-7.874;2024-02-26T06:04:58;98459.84;;;10.04;100.00
60705;BME280;46545;38.014;-7.874;2024-02-26T06:06:59;98458.53;;;10.06;100.00
60705;BME280;46545;38.014;-7.874;2024-02-26T06:09:00;98468.44;;;10.06;100.00
60705;BME280;46545;38.014;-7.874;2024-02-26T06:11:05;98470.63;;;10.09;100.00
60705;BME280;46545;38.014;-7.874;2024-02-26T06:13:06;98471.13;;;10.06;100.00
60705;BME280;46545;38.014;-7.874;2024-02-26T06:15:07;98473.56;;;10.07;100.00
60705;BME280;46545;38.014;-7.874;2024-02-26T06:17:08;98471.91;;;10.06;100.00
60705;BME280;46545;38.014;-7.874;2024-02-26T06:19:09;98475.69;;;10.05;100.00
60705;BME280;46545;38.014;-7.874;2024-02-26T06:21:10;98484.03;;;10.09;100.00
60705;BME280;46545;38.014;-7.874;2024-02-26T06:23:13;98484.03;;;10.09;100.00
60705;BME280;46545;38.014;-7.874;2024-02-26T06:25:14;98481.84;;;10.06;100.00
60705;BME280;46545;38.014;-7.874;2024-02-26T06:27:14;98479.94;;;10.06;100.00
60705;BME280;46545;38.014;-7.874;2024-02-26T06:29:15;98482.06;;;10.04;100.00
60705;BME280;46545;38.014;-7.874;2024-02-26T06:31:16;98487.75;;;10.08;100.00
60705;BME280;46545;38.014;-7.874;2024-02-26T06:33:18;98493.09;;;10.08;100.00
60705;BME280;46545;38.014;-7.874;2024-02-26T06:35:18;98494.09;;;10.02;100.00
60705;BME280;46545;38.014;-7.874;2024-02-26T06:37:19;98484.72;;;9.99;100.00
60705;BME280;46545;38.014;-7.874;2024-02-26T06:39:20;98486.75;;;9.92;100.00
60705;BME280;46545;38.014;-7.874;2024-02-26T06:41:20;98488.31;;;9.88;100.00
60705;BME280;46545;38.014;-7.874;2024-02-26T06:43:21;98481.38;;;9.87;100.00
60705;BME280;46545;38.014;-7.874;2024-02-26T06:45:22;98487.22;;;9.84;100.00
60705;BME280;46545;38.014;-7.874;2024-02-26T06:47:22;98490.94;;;9.83;100.00
60705;BME280;46545;38.014;-7.874;2024-02-26T06:49:23;98491.16;;;9.76;100.00
60705;BME280;46545;38.014;-7.874;2024-02-26T06:51:24;98494.63;;;9.77;100.00
60705;BME280;46545;38.014;-7.874;2024-02-26T06:53:24;98503.72;;;9.76;100.00
60705;BME280;46545;38.014;-7.874;2024-02-26T06:55:26;98500.41;;;9.68;100.00
60705;BME280;46545;38.014;-7.874;2024-02-26T06:57:26;98507.56;;;9.63;100.00
60705;BME280;46545;38.014;-7.874;2024-02-26T06:59:27;98504.31;;;9.61;100.00
60705;BME280;46545;38.014;-7.874;2024-02-26T07:01:28;98508.81;;;9.55;100.00
60705;BME280;46545;38.014;-7.874;2024-02-26T07:03:28;98512.78;;;9.53;100.00
60705;BME280;46545;38.014;-7.874;2024-02-26T07:05:30;98516.53;;;9.52;100.00
60705;BME280;46545;38.014;-7.874;2024-02-26T07:07:31;98507.13;;;9.49;100.00
60705;BME280;46545;38.014;-7.874;2024-02-26T07:09:32;98517.50;;;9.45;100.00
60705;BME280;46545;38.014;-7.874;2024-02-26T07:11:32;98517.28;;;9.47;100.00
60705;BME280;46545;38.014;-7.874;2024-02-26T07:13:33;98524.22;;;9.48;100.00
60705;BME280;46545;38.014;-7.874;2024-02-26T07:15:34;98525.53;;;9.45;100.00
60705;BME280;46545;38.014;-7.874;2024-02-26T07:17:34;98531.91;;;9.44;100.00
60705;BME280;46545;38.014;-7.874;2024-02-26T07:19:35;98533.22;;;9.42;100.00
60705;BME280;46545;38.014;-7.874;2024-02-26T07:21:35;98545.00;;;9.41;100.00
60705;BME280;46545;38.014;-7.874;2024-02-26T07:23:36;98545.00;;;9.41;100.00
60705;BME280;46545;38.014;-7.874;2024-02-26T07:25:37;98540.94;;;9.38;100.00
60705;BME280;46545;38.014;-7.874;2024-02-26T07:27:41;98547.41;;;9.42;100.00
60705;BME280;46545;38.014;-7.874;2024-02-26T07:29:41;98547.50;;;9.47;100.00
60705;BME280;46545;38.014;-7.874;2024-02-26T07:31:42;98555.56;;;9.53;100.00
60705;BME280;46545;38.014;-7.874;2024-02-26T07:33:43;98555.16;;;9.61;100.00
60705;BME280;46545;38.014;-7.874;2024-02-26T07:35:43;98559.59;;;9.72;100.00
60705;BME280;46545;38.014;-7.874;2024-02-26T07:37:44;98561.34;;;9.83;100.00
60705;BME280;46545;38.014;-7.874;2024-02-26T07:39:48;98558.03;;;9.98;100.00
60705;BME280;46545;38.014;-7.874;2024-02-26T07:41:48;98561.59;;;10.04;100.00
60705;BME280;46545;38.014;-7.874;2024-02-26T07:43:51;98566.06;;;10.20;100.00
60705;BME280;46545;38.014;-7.874;2024-02-26T07:45:52;98565.56;;;10.45;100.00
60705;BME280;46545;38.014;-7.874;2024-02-26T07:47:53;98572.66;;;10.89;100.00
60705;BME280;46545;38.014;-7.874;2024-02-26T07:49:54;98577.75;;;11.60;100.00
60705;BME280;46545;38.014;-7.874;2024-02-26T07:51:54;98586.94;;;12.27;100.00
60705;BME280;46545;38.014;-7.874;2024-02-26T07:53:58;98591.06;;;12.61;100.00
60705;BME280;46545;38.014;-7.874;2024-02-26T07:55:59;98598.94;;;13.34;100.00
60705;BME280;46545;38.014;-7.874;2024-02-26T07:57:59;98581.72;;;14.26;100.00
60705;BME280;46545;38.014;-7.874;2024-02-26T08:00:01;98592.22;;;15.22;100.00
60705;BME280;46545;38.014;-7.874;2024-02-26T08:02:05;98607.44;;;16.19;100.00
60705;BME280;46545;38.014;-7.874;2024-02-26T08:04:06;98606.22;;;17.25;96.86
60705;BME280;46545;38.014;-7.874;2024-02-26T08:06:08;98608.00;;;18.09;84.25
60705;BME280;46545;38.014;-7.874;2024-02-26T08:08:09;98614.63;;;18.31;78.37
60705;BME280;46545;38.014;-7.874;2024-02-26T08:10:09;98608.31;;;18.35;74.37
60705;BME280;46545;38.014;-7.874;2024-02-26T08:12:11;98615.81;;;17.50;80.47
60705;BME280;46545;38.014;-7.874;2024-02-26T08:14:12;98627.16;;;16.87;85.66
60705;BME280;46545;38.014;-7.874;2024-02-26T08:16:13;98623.94;;;15.93;93.56
60705;BME280;46545;38.014;-7.874;2024-02-26T08:18:13;98621.53;;;14.94;100.00
60705;BME280;46545;38.014;-7.874;2024-02-26T08:20:14;98623.03;;;15.16;100.00
60705;BME280;46545;38.014;-7.874;2024-02-26T08:22:15;98621.94;;;16.04;100.00
60705;BME280;46545;38.014;-7.874;2024-02-26T08:24:18;98633.81;;;17.27;88.31
60705;BME280;46545;38.014;-7.874;2024-02-26T08:26:19;98636.00;;;18.19;81.73
60705;BME280;46545;38.014;-7.874;2024-02-26T08:28:21;98646.44;;;19.03;72.31
60705;BME280;46545;38.014;-7.874;2024-02-26T08:30:21;98650.16;;;20.06;66.08
60705;BME280;46545;38.014;-7.874;2024-02-26T08:32:22;98648.59;;;20.63;57.98
60705;BME280;46545;38.014;-7.874;2024-02-26T08:34:23;98653.78;;;21.60;55.11
60705;BME280;46545;38.014;-7.874;2024-02-26T08:36:23;98651.47;;;22.27;51.07
60705;BME280;46545;38.014;-7.874;2024-02-26T08:38:24;98656.47;;;23.05;49.14
60705;BME280;46545;38.014;-7.874;2024-02-26T08:40:25;98652.94;;;23.26;46.96
60705;BME280;46545;38.014;-7.874;2024-02-26T08:42:25;98652.88;;;23.47;45.76
60705;BME280;46545;38.014;-7.874;2024-02-26T08:44:26;98658.69;;;23.45;45.61
60705;BME280;46545;38.014;-7.874;2024-02-26T08:46:27;98662.16;;;22.91;46.42
60705;BME280;46545;38.014;-7.874;2024-02-26T08:48:27;98656.03;;;23.70;44.92
60705;BME280;46545;38.014;-7.874;2024-02-26T08:50:28;98657.50;;;23.67;45.01
60705;BME280;46545;38.014;-7.874;2024-02-26T08:52:29;98655.78;;;24.08;44.36
60705;BME280;46545;38.014;-7.874;2024-02-26T08:54:29;98659.88;;;24.39;43.04
60705;BME280;46545;38.014;-7.874;2024-02-26T08:56:30;98664.94;;;24.49;41.48
60705;BME280;46545;38.014;-7.874;2024-02-26T08:58:31;98671.22;;;24.37;41.37
60705;BME280;46545;38.014;-7.874;2024-02-26T09:00:32;98676.47;;;24.55;40.39
60705;BME280;46545;38.014;-7.874;2024-02-26T09:02:32;98678.59;;;24.37;40.70
60705;BME280;46545;38.014;-7.874;2024-02-26T09:04:33;98678.78;;;22.56;44.75
60705;BME280;46545;38.014;-7.874;2024-02-26T09:06:34;98681.78;;;20.33;48.97
60705;BME280;46545;38.014;-7.874;2024-02-26T09:08:34;98687.72;;;18.08;56.53
60705;BME280;46545;38.014;-7.874;2024-02-26T09:10:37;98693.72;;;16.16;63.37
60705;BME280;46545;38.014;-7.874;2024-02-26T09:12:38;98681.22;;;14.87;73.17
60705;BME280;46545;38.014;-7.874;2024-02-26T09:14:40;98691.41;;;14.36;81.35
60705;BME280;46545;38.014;-7.874;2024-02-26T09:16:40;98686.91;;;13.95;86.50
60705;BME280;46545;38.014;-7.874;2024-02-26T09:18:41;98700.69;;;13.73;88.33
60705;BME280;46545;38.014;-7.874;2024-02-26T09:20:42;98690.72;;;13.32;91.26
60705;BME280;46545;38.014;-7.874;2024-02-26T09:22:42;98701.44;;;13.17;92.02
60705;BME280;46545;38.014;-7.874;2024-02-26T09:25:18;98694.50;;;14.73;81.60
60705;BME280;46545;38.014;-7.874;2024-02-26T09:27:19;98688.06;;;17.74;61.72
60705;BME280;46545;38.014;-7.874;2024-02-26T09:29:19;98698.00;;;18.25;57.97
60705;BME280;46545;38.014;-7.874;2024-02-26T09:31:20;98695.56;;;17.63;58.72
60705;BME280;46545;38.014;-7.874;2024-02-26T09:33:21;98704.00;;;16.62;66.75
60705;BME280;46545;38.014;-7.874;2024-02-26T09:35:21;98693.13;;;15.60;74.03
60705;BME280;46545;38.014;-7.874;2024-02-26T09:37:22;98704.13;;;14.90;80.07
60705;BME280;46545;38.014;-7.874;2024-02-26T09:39:23;98710.19;;;14.66;83.66
60705;BME280;46545;38.014;-7.874;2024-02-26T09:41:27;98703.53;;;14.33;84.13
60705;BME280;46545;38.014;-7.874;2024-02-26T09:43:36;98711.66;;;14.07;88.15
60705;BME280;46545;38.014;-7.874;2024-02-26T09:45:40;98707.38;;;14.06;82.88
60705;BME280;46545;38.014;-7.874;2024-02-26T09:47:42;98717.63;;;13.84;87.95
60705;BME280;46545;38.014;-7.874;2024-02-26T09:49:43;98723.59;;;13.70;90.83
60705;BME280;46545;38.014;-7.874;2024-02-26T09:51:43;98717.91;;;13.62;89.59
60705;BME280;46545;38.014;-7.874;2024-02-26T09:53:44;98724.38;;;13.91;90.98
60705;BME280;46545;38.014;-7.874;2024-02-26T09:55:46;98716.25;;;14.17;88.16
60705;BME280;46545;38.014;-7.874;2024-02-26T09:57:48;98717.56;;;14.35;88.53
60705;BME280;46545;38.014;-7.874;2024-02-26T09:59:53;98719.72;;;14.33;84.10
60705;BME280;46545;38.014;-7.874;2024-02-26T10:01:55;98717.06;;;14.07;83.83
60705;BME280;46545;38.014;-7.874;2024-02-26T10:03:57;98712.25;;;13.94;84.49
60705;BME280;46545;38.014;-7.874;2024-02-26T10:05:58;98711.69;;;13.87;86.76
60705;BME280;46545;38.014;-7.874;2024-02-26T10:08:00;98702.31;;;13.69;90.56
60705;BME280;46545;38.014;-7.874;2024-02-26T10:10:01;98720.88;;;13.65;89.26
60705;BME280;46545;38.014;-7.874;2024-02-26T10:12:03;98717.91;;;13.67;90.38
60705;BME280;46545;38.014;-7.874;2024-02-26T10:14:05;98724.91;;;13.83;86.74
60705;BME280;46545;38.014;-7.874;2024-02-26T10:16:06;98721.13;;;14.00;82.66
60705;BME280;46545;38.014;-7.874;2024-02-26T10:18:08;98719.75;;;13.97;85.33
60705;BME280;46545;38.014;-7.874;2024-02-26T10:20:16;98709.53;;;13.99;87.96
60705;BME280;46545;38.014;-7.874;2024-02-26T10:22:17;98712.50;;;13.98;87.01
60705;BME280;46545;38.014;-7.874;2024-02-26T10:24:18;98709.28;;;13.90;80.45
60705;BME280;46545;38.014;-7.874;2024-02-26T10:26:19;98716.53;;;13.85;82.85
60705;BME280;46545;38.014;-7.874;2024-02-26T10:28:20;98719.00;;;13.81;80.25